createdAt,value
2022-08-03T00:02:17.647Z,27.42
2022-08-03T00:04:44.951Z,27.40
2022-08-03T00:07:11.844Z,27.39
2022-08-03T00:09:38.783Z,27.38
2022-08-03T00:12:06.417Z,27.34
2022-08-03T00:14:33.657Z,27.33
2022-08-03T00:17:00.696Z,27.30
2022-08-03T00:19:28.181Z,27.27
2022-08-03T00:21:55.209Z,27.25
2022-08-03T00:24:22.169Z,27.23
2022-08-03T00:26:49.082Z,27.22
2022-08-03T00:29:16.037Z,27.20
2022-08-03T00:31:52.725Z,27.17
2022-08-03T00:34:57.388Z,27.12
2022-08-03T00:37:13.479Z,27.12
2022-08-03T00:39:40.954Z,27.09
2022-08-03T00:42:07.986Z,27.07
2022-08-03T00:44:42.887Z,27.06
2022-08-03T00:47:11.574Z,27.03
2022-08-03T00:49:40.992Z,27.02
2022-08-03T00:52:13.904Z,26.96
2022-08-03T00:54:41.111Z,26.91
2022-08-03T00:57:08.498Z,26.90
2022-08-03T00:59:38.239Z,26.86
2022-08-03T01:02:05.878Z,26.83
2022-08-03T01:04:33.431Z,26.77
2022-08-03T01:07:18.089Z,26.76
2022-08-03T01:10:18.319Z,26.73
2022-08-03T01:14:02.354Z,26.69
2022-08-03T01:16:25.816Z,26.69
2022-08-03T01:19:29.446Z,26.65
2022-08-03T01:22:44.098Z,26.62
2022-08-03T01:25:44.650Z,26.60
2022-08-03T01:28:39.584Z,26.56
2022-08-03T01:31:10.701Z,26.55
2022-08-03T01:33:44.491Z,26.55
2022-08-03T01:36:19.741Z,26.53
2022-08-03T01:38:52.666Z,26.50
2022-08-03T01:41:31.454Z,26.46
2022-08-03T01:44:29.417Z,26.45
2022-08-03T01:46:51.296Z,26.43
2022-08-03T01:49:18.771Z,26.40
2022-08-03T01:51:58.607Z,26.36
2022-08-03T01:54:42.429Z,26.32
2022-08-03T01:57:10.603Z,26.31
2022-08-03T01:59:39.317Z,26.31
2022-08-03T02:02:31.959Z,26.28
2022-08-03T02:04:57.745Z,26.25
2022-08-03T02:07:27.231Z,26.23
2022-08-03T02:10:16.690Z,26.20
2022-08-03T02:13:05.897Z,26.17
2022-08-03T02:15:34.156Z,26.13
2022-08-03T02:18:03.934Z,26.10
2022-08-03T02:20:33.222Z,26.08
2022-08-03T02:23:00.432Z,26.07
2022-08-03T02:25:28.820Z,26.06
2022-08-03T02:28:11.062Z,26.06
2022-08-03T02:30:41.163Z,26.07
2022-08-03T02:33:25.674Z,26.07
2022-08-03T02:35:54.472Z,26.06
2022-08-03T02:38:28.559Z,26.07
2022-08-03T02:40:57.410Z,26.08
2022-08-03T02:43:25.485Z,26.10
2022-08-03T02:45:54.496Z,26.09
2022-08-03T02:48:26.906Z,26.08
2022-08-03T02:50:57.839Z,26.06
2022-08-03T02:53:27.420Z,26.05
2022-08-03T02:55:57.006Z,26.03
2022-08-03T02:58:26.005Z,26.02
2022-08-03T03:00:54.509Z,26.04
2022-08-03T03:03:23.290Z,26.03
2022-08-03T03:05:57.623Z,26.00
2022-08-03T03:08:28.240Z,25.97
2022-08-03T03:10:59.900Z,25.94
2022-08-03T03:13:31.844Z,25.90
2022-08-03T03:16:01.752Z,25.88
2022-08-03T03:18:31.475Z,25.87
2022-08-03T03:21:01.286Z,25.84
2022-08-03T03:23:29.311Z,25.80
2022-08-03T03:25:58.996Z,25.74
2022-08-03T03:28:26.621Z,25.70
2022-08-03T03:30:53.741Z,25.69
2022-08-03T03:33:22.651Z,25.65
2022-08-03T03:35:51.613Z,25.62
2022-08-03T03:38:20.085Z,25.58
2022-08-03T03:40:47.729Z,25.57
2022-08-03T03:43:14.818Z,25.55
2022-08-03T03:45:43.046Z,25.54
2022-08-03T03:48:10.312Z,25.54
2022-08-03T03:50:40.997Z,25.52
2022-08-03T03:53:13.977Z,25.51
2022-08-03T03:55:59.675Z,25.50
2022-08-03T03:58:29.840Z,25.49
2022-08-03T04:01:04.368Z,25.47
2022-08-03T04:03:31.466Z,25.45
2022-08-03T04:06:17.612Z,25.44
2022-08-03T04:09:04.362Z,25.39
2022-08-03T04:11:43.972Z,25.38
2022-08-03T04:14:20.349Z,25.35
2022-08-03T04:16:53.884Z,25.32
2022-08-03T04:19:38.834Z,25.31
2022-08-03T04:22:10.846Z,25.30
2022-08-03T04:24:50.560Z,25.28
2022-08-03T04:27:26.116Z,25.27
2022-08-03T04:29:55.583Z,25.28
2022-08-03T04:32:26.313Z,25.28
2022-08-03T04:34:53.881Z,25.30
2022-08-03T04:40:44.348Z,25.22
2022-08-03T04:43:14.147Z,25.20
2022-08-03T04:45:42.791Z,25.18
2022-08-03T04:48:10.068Z,25.14
2022-08-03T04:50:37.639Z,25.13
2022-08-03T04:53:07.272Z,25.14
2022-08-03T04:55:35.831Z,25.14
2022-08-03T04:58:04.419Z,25.15
2022-08-03T05:00:31.761Z,25.17
2022-08-03T05:02:59.201Z,25.20
2022-08-03T05:05:48.979Z,25.21
2022-08-03T05:08:14.822Z,25.22
2022-08-03T05:10:41.826Z,25.26
2022-08-03T05:13:12.952Z,25.28
2022-08-03T05:15:43.206Z,25.31
2022-08-03T05:18:14.186Z,25.33
2022-08-03T05:20:41.812Z,25.35
2022-08-03T05:23:08.936Z,25.37
2022-08-03T05:25:35.894Z,25.40
2022-08-03T05:28:04.350Z,25.42
2022-08-03T05:30:34.140Z,25.43
2022-08-03T05:33:03.963Z,25.42
2022-08-03T05:35:55.650Z,25.42
2022-08-03T05:38:20.904Z,25.42
2022-08-03T05:41:21.812Z,25.47
2022-08-03T05:43:46.115Z,25.52
2022-08-03T05:46:13.702Z,25.55
2022-08-03T05:48:42.721Z,25.58
2022-08-03T05:51:12.281Z,25.61
2022-08-03T05:53:45.743Z,25.66
2022-08-03T05:56:15.980Z,25.67
2022-08-03T05:58:46.274Z,25.70
2022-08-03T06:01:14.430Z,25.76
2022-08-03T06:03:41.677Z,25.81
2022-08-03T06:06:08.885Z,25.81
2022-08-03T06:08:36.105Z,25.82
2022-08-03T06:11:04.037Z,25.86
2022-08-03T06:13:32.226Z,25.88
2022-08-03T06:15:59.315Z,25.93
2022-08-03T06:18:26.321Z,25.97
2022-08-03T06:20:53.925Z,26.00
2022-08-03T06:23:25.351Z,26.05
2022-08-03T06:26:09.691Z,26.09
2022-08-03T06:28:53.347Z,26.16
2022-08-03T06:31:26.016Z,26.19
2022-08-03T06:34:34.262Z,26.23
2022-08-03T06:36:52.244Z,26.29
2022-08-03T06:39:20.324Z,26.32
2022-08-03T06:41:47.522Z,26.41
2022-08-03T06:44:15.283Z,26.48
2022-08-03T06:46:43.375Z,26.49
2022-08-03T06:49:10.521Z,26.53
2022-08-03T06:52:05.203Z,26.61
2022-08-03T06:54:27.400Z,26.68
2022-08-03T06:56:54.619Z,26.73
2022-08-03T07:00:08.644Z,26.77
2022-08-03T07:02:09.806Z,26.84
2022-08-03T07:04:37.865Z,26.91
2022-08-03T07:07:05.056Z,26.97
2022-08-03T07:09:32.374Z,27.03
2022-08-03T07:11:59.500Z,27.09
2022-08-03T07:14:26.469Z,27.12
2022-08-03T07:16:53.427Z,27.21
2022-08-03T07:19:20.879Z,27.28
2022-08-03T07:21:48.046Z,27.30
2022-08-03T07:24:15.052Z,27.35
2022-08-03T07:26:42.137Z,27.39
2022-08-03T07:29:14.685Z,27.52
2022-08-03T07:31:42.678Z,27.61
2022-08-03T07:34:09.722Z,27.59
2022-08-03T07:36:37.107Z,27.60
2022-08-03T07:39:17.794Z,27.66
2022-08-03T07:41:46.302Z,27.74
2022-08-03T07:44:13.828Z,27.82
2022-08-03T07:46:40.908Z,27.85
2022-08-03T07:49:07.932Z,27.91
2022-08-03T07:51:35.214Z,27.98
2022-08-03T07:54:02.805Z,28.04
2022-08-03T07:56:30.308Z,28.08
2022-08-03T07:58:57.715Z,28.11
2022-08-03T08:01:25.542Z,28.17
2022-08-03T08:03:53.739Z,28.22
2022-08-03T08:06:23.765Z,28.28
2022-08-03T08:08:50.759Z,28.33
2022-08-03T08:11:17.854Z,28.39
2022-08-03T08:13:44.970Z,28.45
2022-08-03T08:16:11.888Z,28.51
2022-08-03T08:18:38.819Z,28.59
2022-08-03T08:21:05.852Z,28.62
2022-08-03T08:23:43.737Z,28.69
2022-08-03T08:26:12.604Z,28.73
2022-08-03T08:28:39.908Z,28.82
2022-08-03T08:31:07.065Z,28.81
2022-08-03T08:34:02.585Z,28.84
2022-08-03T08:36:22.261Z,28.88
2022-08-03T08:38:49.250Z,28.93
2022-08-03T08:41:16.712Z,29.04
2022-08-03T08:43:43.893Z,29.06
2022-08-03T08:46:13.228Z,29.10
2022-08-03T08:48:52.659Z,29.14
2022-08-03T08:51:21.920Z,29.22
2022-08-03T08:53:53.789Z,29.25
2022-08-03T08:56:26.072Z,29.29
2022-08-03T08:58:58.914Z,29.29
2022-08-03T09:01:27.376Z,29.37
2022-08-03T09:03:55.222Z,29.41
2022-08-03T09:06:23.490Z,29.50
2022-08-03T09:08:50.682Z,29.51
2022-08-03T09:11:52.551Z,29.60
2022-08-03T09:14:37.040Z,29.67
2022-08-03T09:17:08.138Z,29.66
2022-08-03T09:19:37.507Z,29.76
2022-08-03T09:22:15.631Z,29.79
2022-08-03T09:25:23.201Z,29.87
2022-08-03T09:27:48.523Z,29.93
2022-08-03T09:30:34.087Z,29.93
2022-08-03T09:33:08.559Z,29.96
2022-08-03T09:35:54.067Z,30.02
2022-08-03T09:38:28.419Z,30.11
2022-08-03T09:41:00.239Z,30.20
2022-08-03T09:43:28.957Z,30.25
2022-08-03T09:46:07.966Z,30.27
2022-08-03T09:48:37.446Z,30.42
2022-08-03T09:51:14.095Z,30.39
2022-08-03T09:53:58.808Z,30.47
2022-08-03T09:56:48.199Z,30.53
2022-08-03T09:59:25.961Z,30.65
2022-08-03T10:01:56.225Z,30.74
2022-08-03T10:04:24.000Z,30.80
2022-08-03T10:07:09.310Z,30.76
2022-08-03T10:09:37.560Z,30.83
2022-08-03T10:12:13.293Z,30.92
2022-08-03T10:14:42.218Z,30.94
2022-08-03T10:17:12.651Z,31.02
2022-08-03T10:19:41.342Z,31.06
2022-08-03T10:22:15.891Z,31.16
2022-08-03T10:25:07.171Z,31.14
2022-08-03T10:27:39.235Z,31.21
2022-08-03T10:30:11.884Z,31.30
2022-08-03T10:32:43.706Z,31.42
2022-08-03T10:35:20.372Z,31.43
2022-08-03T10:38:20.111Z,31.53
2022-08-03T10:40:55.775Z,31.57
2022-08-03T10:43:38.978Z,31.58
2022-08-03T10:46:08.632Z,31.71
2022-08-03T10:48:36.915Z,31.70
2022-08-03T10:51:05.106Z,31.76
2022-08-03T10:53:52.812Z,31.87
2022-08-03T10:56:53.258Z,31.93
2022-08-03T10:59:46.144Z,32.05
2022-08-03T11:02:14.802Z,32.13
2022-08-03T11:04:42.874Z,32.21
2022-08-03T11:07:24.239Z,32.30
2022-08-03T11:09:54.322Z,32.31
2022-08-03T11:12:31.462Z,32.42
2022-08-03T11:15:07.173Z,32.40
2022-08-03T11:17:46.859Z,32.42
2022-08-03T11:20:52.961Z,32.51
2022-08-03T11:24:05.336Z,32.59
2022-08-03T11:26:31.374Z,32.65
2022-08-03T11:29:31.081Z,32.78
2022-08-03T11:31:58.207Z,32.83
2022-08-03T11:34:26.415Z,32.91
2022-08-03T11:37:21.387Z,33.01
2022-08-03T11:39:53.115Z,33.09
2022-08-03T11:42:35.281Z,33.22
2022-08-03T11:45:08.933Z,33.32
2022-08-03T11:47:50.114Z,33.38
2022-08-03T11:50:20.043Z,33.46
2022-08-03T11:52:49.327Z,33.50
2022-08-03T11:55:21.702Z,33.52
2022-08-03T11:59:11.242Z,33.49
2022-08-03T12:00:38.003Z,33.61
2022-08-03T12:03:18.412Z,33.72
2022-08-03T12:05:52.297Z,33.72
2022-08-03T12:08:32.089Z,33.83
2022-08-03T12:11:02.397Z,33.84
2022-08-03T12:14:45.161Z,33.82
2022-08-03T12:16:40.775Z,33.85
2022-08-03T12:19:08.497Z,33.91
2022-08-03T12:21:56.925Z,34.06
2022-08-03T12:24:28.398Z,34.05
2022-08-03T12:26:59.155Z,34.12
2022-08-03T12:29:27.756Z,34.14
2022-08-03T12:31:56.438Z,34.19
2022-08-03T12:34:23.708Z,34.31
2022-08-03T12:36:53.437Z,34.36
2022-08-03T12:39:26.632Z,34.39
2022-08-03T12:41:55.074Z,34.47
2022-08-03T12:44:36.131Z,34.42
2022-08-03T12:47:06.677Z,34.49
2022-08-03T12:49:53.960Z,34.61
2022-08-03T12:52:23.072Z,34.67
2022-08-03T12:54:59.111Z,34.80
2022-08-03T12:57:40.841Z,34.85
2022-08-03T13:00:21.704Z,34.85
2022-08-03T13:05:54.741Z,35.02
2022-08-03T13:08:26.001Z,35.11
2022-08-03T13:10:53.741Z,35.19
2022-08-03T13:13:39.182Z,35.22
2022-08-03T13:16:06.203Z,35.25
2022-08-03T13:18:33.452Z,35.23
2022-08-03T13:21:01.014Z,35.22
2022-08-03T13:23:28.470Z,35.26
2022-08-03T13:25:56.263Z,35.17
2022-08-03T13:28:23.608Z,35.18
2022-08-03T13:30:50.770Z,35.21
2022-08-03T13:33:18.112Z,35.19
2022-08-03T13:35:45.169Z,35.19
2022-08-03T13:38:12.634Z,35.29
2022-08-03T13:40:42.719Z,35.37
2022-08-03T13:43:13.106Z,35.44
2022-08-03T13:45:52.322Z,35.49
2022-08-03T13:48:36.765Z,35.54
2022-08-03T13:51:11.803Z,35.55
2022-08-03T13:53:51.049Z,35.58
2022-08-03T13:56:18.272Z,35.56
2022-08-03T13:58:45.324Z,35.58
2022-08-03T14:01:12.444Z,35.66
2022-08-03T14:03:39.514Z,35.70
2022-08-03T14:06:06.684Z,35.72
2022-08-03T14:08:33.632Z,35.79
2022-08-03T14:11:01.008Z,35.85
2022-08-03T14:13:28.161Z,35.90
2022-08-03T14:15:56.067Z,35.90
2022-08-03T14:18:29.012Z,35.83
2022-08-03T14:21:05.880Z,35.89
2022-08-03T14:23:36.847Z,35.93
2022-08-03T14:26:06.289Z,36.07
2022-08-03T14:28:33.300Z,36.03
2022-08-03T14:31:01.452Z,36.03
2022-08-03T14:33:28.520Z,36.06
2022-08-03T14:35:55.715Z,36.08
2022-08-03T14:38:23.716Z,36.00
2022-08-03T14:40:51.423Z,36.04
2022-08-03T14:43:20.207Z,35.94
2022-08-03T14:45:52.136Z,36.01
2022-08-03T14:50:34.819Z,35.99
2022-08-03T14:51:11.997Z,35.92
2022-08-03T14:53:39.067Z,35.93
2022-08-03T14:56:10.170Z,35.95
2022-08-03T14:58:40.128Z,36.00
2022-08-03T15:02:03.240Z,35.97
2022-08-03T15:03:54.645Z,35.87
2022-08-03T15:06:21.937Z,35.78
2022-08-03T15:09:13.727Z,35.75
2022-08-03T15:11:36.856Z,35.75
2022-08-03T15:14:09.008Z,35.70
2022-08-03T15:16:37.649Z,35.71
2022-08-03T15:20:01.172Z,35.62
2022-08-03T15:21:52.195Z,35.57
2022-08-03T15:24:19.481Z,35.57
2022-08-03T15:26:46.732Z,35.55
2022-08-03T15:30:05.230Z,35.46
2022-08-03T15:32:00.965Z,35.44
2022-08-03T15:34:28.042Z,35.40
2022-08-03T15:36:55.208Z,35.38
2022-08-03T15:39:22.484Z,35.34
2022-08-03T15:41:49.551Z,35.29
2022-08-03T15:44:20.378Z,35.25
2022-08-03T15:46:48.056Z,35.23
2022-08-03T15:49:16.623Z,35.23
2022-08-03T15:51:43.635Z,35.17
2022-08-03T15:54:10.719Z,35.18
2022-08-03T15:56:37.848Z,35.12
2022-08-03T15:59:12.604Z,35.04
2022-08-03T16:01:41.739Z,35.02
2022-08-03T16:04:08.903Z,35.02
2022-08-03T16:06:36.612Z,35.03
2022-08-03T16:09:23.574Z,34.99
2022-08-03T16:11:59.093Z,35.00
2022-08-03T16:14:32.434Z,34.99
2022-08-03T16:17:04.102Z,34.86
2022-08-03T16:19:31.267Z,34.81
2022-08-03T16:22:03.259Z,34.81
2022-08-03T16:24:31.839Z,34.80
2022-08-03T16:27:00.567Z,34.82
2022-08-03T16:29:28.565Z,34.82
2022-08-03T16:31:55.504Z,34.76
2022-08-03T16:34:22.486Z,34.76
2022-08-03T16:36:49.545Z,34.74
2022-08-03T16:39:16.957Z,34.73
2022-08-03T16:41:53.872Z,34.71
2022-08-03T16:44:30.796Z,34.73
2022-08-03T16:46:59.088Z,34.69
2022-08-03T16:49:53.171Z,34.66
2022-08-03T16:52:13.556Z,34.66
2022-08-03T16:54:44.403Z,34.63
2022-08-03T16:57:56.092Z,34.59
2022-08-03T17:00:09.530Z,34.57
2022-08-03T17:02:37.337Z,34.55
2022-08-03T17:05:05.116Z,34.53
2022-08-03T17:07:31.991Z,34.50
2022-08-03T17:10:01.060Z,34.48
2022-08-03T17:12:28.459Z,34.47
2022-08-03T17:14:57.168Z,34.43
2022-08-03T17:17:37.601Z,34.40
2022-08-03T17:20:19.575Z,34.36
2022-08-03T17:23:34.316Z,34.33
2022-08-03T17:26:10.543Z,34.29
2022-08-03T17:28:56.472Z,34.27
2022-08-03T17:31:31.827Z,34.19
2022-08-03T17:34:04.449Z,34.19
2022-08-03T17:37:02.573Z,34.18
2022-08-03T17:39:48.538Z,34.15
2022-08-03T17:42:30.634Z,34.13
2022-08-03T17:45:01.716Z,34.08
2022-08-03T17:50:24.148Z,34.01
2022-08-03T17:53:15.206Z,33.97
2022-08-03T17:55:55.011Z,33.92
2022-08-03T17:58:52.400Z,33.88
2022-08-03T18:02:00.531Z,33.85
2022-08-03T18:04:37.712Z,33.81
2022-08-03T18:07:12.736Z,33.76
2022-08-03T18:10:03.389Z,33.68
2022-08-03T18:12:51.751Z,33.63
2022-08-03T18:15:40.332Z,33.59
2022-08-03T18:18:10.510Z,33.55
2022-08-03T18:20:41.969Z,33.53
2022-08-03T18:23:24.846Z,33.48
2022-08-03T18:26:04.884Z,33.40
2022-08-03T18:28:34.562Z,33.35
2022-08-03T18:31:06.134Z,33.30
2022-08-03T18:34:18.465Z,33.24
2022-08-03T18:39:15.245Z,33.12
2022-08-03T18:41:46.526Z,33.07
2022-08-03T18:44:37.655Z,33.01
2022-08-03T18:47:52.113Z,32.95
2022-08-03T18:50:34.083Z,32.86
2022-08-03T18:54:02.631Z,32.81
2022-08-03T18:56:55.083Z,32.77
2022-08-03T18:59:34.878Z,32.70
2022-08-03T19:02:26.674Z,32.63
2022-08-03T19:04:55.323Z,32.58
2022-08-03T19:07:27.344Z,32.55
2022-08-03T19:10:06.988Z,32.49
2022-08-03T19:12:56.273Z,32.44
2022-08-03T19:15:36.848Z,32.39
2022-08-03T19:18:11.917Z,32.33
2022-08-03T19:20:54.741Z,32.26
2022-08-03T19:23:25.622Z,32.21
2022-08-03T19:28:41.565Z,32.09
2022-08-03T19:31:11.317Z,32.05
2022-08-03T19:33:57.295Z,32.00
2022-08-03T19:36:28.622Z,31.95
2022-08-03T19:38:57.590Z,31.91
2022-08-03T19:41:31.187Z,31.87
2022-08-03T19:44:20.205Z,31.82
2022-08-03T19:46:54.675Z,31.79
2022-08-03T19:49:59.920Z,31.76
2022-08-03T19:52:24.164Z,31.70
2022-08-03T19:54:54.647Z,31.66
2022-08-03T19:57:27.329Z,31.63
2022-08-03T19:59:56.931Z,31.59
2022-08-03T20:02:34.432Z,31.53
2022-08-03T20:05:02.230Z,31.49
2022-08-03T20:07:32.873Z,31.46
2022-08-03T20:10:04.317Z,31.42
2022-08-03T20:12:39.080Z,31.38
2022-08-03T20:15:09.173Z,31.33
2022-08-03T20:17:56.903Z,31.28
2022-08-03T20:20:35.782Z,31.23
2022-08-03T20:23:20.619Z,31.17
2022-08-03T20:26:00.557Z,31.13
2022-08-03T20:28:33.334Z,31.08
2022-08-03T20:31:02.007Z,31.02
2022-08-03T20:33:45.887Z,30.98
2022-08-03T20:36:17.920Z,30.92
2022-08-03T20:38:47.908Z,30.88
2022-08-03T20:41:17.267Z,30.83
2022-08-03T20:43:45.387Z,30.79
2022-08-03T20:46:31.868Z,30.76
2022-08-03T20:49:04.988Z,30.71
2022-08-03T20:51:50.395Z,30.67
2022-08-03T20:54:29.601Z,30.65
2022-08-03T20:57:04.130Z,30.63
2022-08-03T20:59:50.839Z,30.59
2022-08-03T21:02:29.208Z,30.58
2022-08-03T21:05:02.856Z,30.55
2022-08-03T21:08:06.425Z,30.53
2022-08-03T21:10:39.693Z,30.49
2022-08-03T21:12:55.172Z,34.05
2022-08-03T21:13:08.186Z,33.17
2022-08-03T21:13:23.446Z,30.48
2022-08-03T21:16:12.178Z,30.45
2022-08-03T21:18:51.817Z,30.41
2022-08-03T21:21:22.496Z,30.38
2022-08-03T21:23:55.004Z,30.32
2022-08-03T21:26:25.885Z,30.26
2022-08-03T21:28:56.965Z,30.22
2022-08-03T21:31:26.561Z,30.17
2022-08-03T21:33:57.246Z,30.11
2022-08-03T21:36:31.116Z,30.05
2022-08-03T21:38:59.474Z,30.03
2022-08-03T21:41:30.605Z,29.99
2022-08-03T21:43:59.242Z,29.96
2022-08-03T21:46:30.807Z,29.91
2022-08-03T21:49:51.900Z,29.89
2022-08-03T21:51:50.483Z,29.86
2022-08-03T21:54:34.650Z,29.84
2022-08-03T21:57:06.549Z,29.81
2022-08-03T21:59:38.104Z,29.78
2022-08-03T22:02:32.226Z,29.75
2022-08-03T22:04:59.634Z,29.73
2022-08-03T22:07:37.701Z,29.69
2022-08-03T22:10:07.742Z,29.67
2022-08-03T22:12:35.687Z,29.64
2022-08-03T22:15:07.458Z,29.64
2022-08-03T22:17:55.418Z,29.64
2022-08-03T22:20:25.177Z,29.60
2022-08-03T22:22:57.026Z,29.59
2022-08-03T22:25:29.299Z,29.61
2022-08-03T22:27:59.769Z,29.61
2022-08-03T22:30:27.116Z,29.59
2022-08-03T22:32:56.316Z,29.58
2022-08-03T22:35:26.555Z,29.57
2022-08-03T22:37:58.428Z,29.53
2022-08-03T22:40:28.294Z,29.51
2022-08-03T22:42:55.465Z,29.47
2022-08-03T22:46:07.717Z,29.45
2022-08-03T22:48:11.212Z,29.38
2022-08-03T22:50:39.030Z,29.37
2022-08-03T22:53:06.791Z,29.30
2022-08-03T22:55:34.348Z,29.25
2022-08-03T22:58:01.282Z,29.24
2022-08-03T23:00:28.407Z,29.20
2022-08-03T23:02:58.552Z,29.17
2022-08-03T23:06:01.736Z,29.15
2022-08-03T23:08:25.510Z,29.09
2022-08-03T23:10:54.342Z,29.04
2022-08-03T23:13:25.407Z,29.01
2022-08-03T23:15:57.723Z,28.98
2022-08-03T23:18:30.433Z,28.95
2022-08-03T23:21:02.405Z,28.92
2022-08-03T23:23:44.520Z,28.89
2022-08-03T23:26:13.216Z,28.81
2022-08-03T23:28:45.501Z,28.82
2022-08-03T23:31:14.444Z,28.79
2022-08-03T23:33:44.684Z,28.76
2022-08-03T23:36:30.954Z,28.74
2022-08-03T23:39:03.265Z,28.68
2022-08-03T23:41:31.048Z,28.66
2022-08-03T23:44:01.491Z,28.62
2022-08-03T23:46:30.532Z,28.60
2022-08-03T23:49:06.512Z,28.57
2022-08-03T23:51:41.214Z,28.55
2022-08-03T23:54:26.705Z,28.53
2022-08-03T23:57:19.513Z,28.51
